This is the latest recevied weather packets stored in our database for station/object EW1917. If no packets are shown the sender has not sent any weather packets the latest 10 day(s).
| Time | Temp. | Humidity | Pressure | Rain* | Wind** | Luminosity | Snow |
|---|---|---|---|---|---|---|---|
| 1778222871 | 16.67° C | 70% | 1011.4 hPa | 0 mm | - | 253 W/m² | - |
| 1778221974 | 16.67° C | 71% | 1011.4 hPa | 0 mm | - | 276 W/m² | - |
| 1778221671 | 16.67° C | 72% | 1011.4 hPa | 0 mm | - | 267 W/m² | - |
| 1778218974 | 15.56° C | 76% | 1011.3 hPa | 0 mm | - | 91 W/m² | - |
| 1778217471 | 15° C | 76% | 1011.3 hPa | 0 mm | - | 72 W/m² | - |
| 1778215971 | 15° C | 76% | 1011.1 hPa | 0 mm | - | 53 W/m² | - |
| 1778215670 | 15° C | 76% | 1011.1 hPa | 0 mm | - | 46 W/m² | - |
| 1778214480 | 15° C | 76% | 1011 hPa | 0 mm | - | 25 W/m² | - |
| 1778212670 | 15° C | 73% | 1010.8 hPa | 0 mm | - | 0 W/m² | - |
| 1778210874 | 15° C | 71% | 1010.9 hPa | 0 mm | - | 0 W/m² | - |
| 1778208177 | 15° C | 67% | 1010.8 hPa | 0 mm | - | 0 W/m² | - |
| 1778207571 | 15° C | 66% | 1011 hPa | 0 mm | - | 0 W/m² | - |
| 1778206970 | 15° C | 66% | 1010.9 hPa | 0 mm | - | 0 W/m² | - |
| 1778203972 | 11.67° C | 80% | 1011.3 hPa | 0 mm | - | 0 W/m² | - |
| 1778203074 | 11.67° C | 80% | 1011.6 hPa | 0 mm | - | 0 W/m² | - |
| 1778202770 | 11.67° C | 80% | 1011.5 hPa | 0 mm | - | 0 W/m² | - |
| 1778201878 | 10° C | 85% | 1011.8 hPa | 0 mm | - | 0 W/m² | - |
| 1778201277 | 10° C | 85% | 1011.8 hPa | 0 mm | - | 0 W/m² | - |
| 1778200070 | 9.44° C | 87% | 1012.1 hPa | 0 mm | - | 0 W/m² | - |
| 1778199774 | 9.44° C | 87% | 1012.2 hPa | 0 mm | - | 0 W/m² | - |
| 1778198273 | 10° C | 87% | 1012.4 hPa | 0 mm | - | 0 W/m² | - |
| 1778196781 | 10° C | 85% | 1012.5 hPa | 0 mm | - | 0 W/m² | - |
| 1778196474 | 10° C | 85% | 1012.7 hPa | 0 mm | - | 0 W/m² | - |
| 1778195280 | 10° C | 86% | 1012.8 hPa | 0 mm | - | 0 W/m² | - |
| 1778194674 | 10° C | 85% | 1012.7 hPa | 0 mm | - | 0 W/m² | - |
* Rain latest hour (hover to see other rain measurements)
** Current wind speed in m/s (hover to see current wind gust speed)